Time;durP1;ratioP1;P1;durP2;ratioP2;P2;SDS_P1;SDS_P2;PMS_P1;PMS_P2;Temp;Humidity;BMP_temperature;BMP_pressure;BME280_temperature;BME280_humidity;BME280_pressure;Samples;Min_cycle;Max_cycle;Signal;HPM_P1;HPM_P2
2022/06/20 00:00:28;;;;;;;13.48;2.10;;;;;;;11.22;69.66;101061.50;5086878;28;20073;-82
2022/06/20 00:02:58;;;;;;;13.27;2.55;;;;;;;11.22;69.38;101067.63;5070476;28;20613;-81
2022/06/20 00:05:31;;;;;;;9.40;2.00;;;;;;;11.23;69.40;101068.44;5054955;28;20476;-80
2022/06/20 00:07:57;;;;;;;9.35;2.25;;;;;;;11.22;69.09;101066.78;5052593;28;20071;-81
2022/06/20 00:10:26;;;;;;;10.70;2.35;;;;;;;11.21;68.70;101054.53;5071966;28;20032;-83
2022/06/20 00:12:53;;;;;;;13.50;2.40;;;;;;;11.18;68.70;101055.63;5070705;28;20031;-83
2022/06/20 00:15:30;;;;;;;9.25;2.03;;;;;;;11.16;68.56;101068.16;5068129;28;20725;-81
2022/06/20 00:17:57;;;;;;;16.02;3.25;;;;;;;11.12;68.72;101064.94;5054387;28;20032;-81
2022/06/20 00:20:24;;;;;;;16.90;2.60;;;;;;;11.15;68.70;101072.63;5073562;28;20020;-81
2022/06/20 00:22:50;;;;;;;11.50;2.30;;;;;;;11.16;68.51;101070.81;5086665;28;20044;-81
2022/06/20 00:25:16;;;;;;;17.38;3.22;;;;;;;11.14;68.70;101057.72;5053403;28;20073;-82
2022/06/20 00:27:45;;;;;;;10.40;1.98;;;;;;;11.13;68.43;101060.50;5073088;28;20090;-83
2022/06/20 00:30:14;;;;;;;8.82;2.15;;;;;;;11.07;68.71;101053.91;5056687;28;20024;-83
2022/06/20 00:32:40;;;;;;;10.98;2.28;;;;;;;11.09;68.60;101059.06;5086756;28;20052;-83
2022/06/20 00:35:07;;;;;;;14.32;2.97;;;;;;;11.11;68.59;101051.84;5089156;28;20075;-81
2022/06/20 00:37:33;;;;;;;12.10;2.72;;;;;;;11.12;68.34;101045.56;5070236;28;20074;-81
2022/06/20 00:39:59;;;;;;;9.35;2.05;;;;;;;11.19;68.23;101043.25;5073213;28;20349;-81
2022/06/20 00:42:26;;;;;;;8.23;2.42;;;;;;;11.28;68.11;101048.56;5088761;28;20062;-80
2022/06/20 00:45:12;;;;;;;10.15;2.15;;;;;;;11.31;67.68;101057.22;5084091;28;20071;-81
2022/06/20 00:48:04;;;;;;;10.05;2.00;;;;;;;11.34;67.46;101052.47;5058885;28;20097;-81
2022/06/20 00:50:52;;;;;;;9.50;2.97;;;;;;;11.20;67.51;101056.34;5074539;28;20047;-83
2022/06/20 00:53:46;;;;;;;10.50;3.60;;;;;;;11.12;67.59;101053.50;5076031;28;20059;-82
2022/06/20 00:56:55;;;;;;;10.02;2.80;;;;;;;11.18;67.61;101052.97;5082588;28;20048;-81
2022/06/20 00:59:58;;;;;;;6.18;1.98;;;;;;;11.07;67.81;101039.88;5057065;28;20446;-81
2022/06/20 01:02:47;;;;;;;13.98;2.17;;;;;;;10.87;68.46;101035.31;5089817;28;20036;-81
2022/06/20 01:05:52;;;;;;;8.25;1.88;;;;;;;10.86;68.75;101040.75;5088332;28;20161;-81
2022/06/20 01:08:39;;;;;;;7.20;1.60;;;;;;;10.92;68.26;101038.38;5070227;28;20051;-80
2022/06/20 01:11:27;;;;;;;8.60;2.10;;;;;;;10.88;68.55;101037.00;5064107;28;20046;-81
2022/06/20 01:14:27;;;;;;;12.70;2.33;;;;;;;10.52;68.76;101029.44;5100109;28;20047;-81
2022/06/20 01:17:23;;;;;;;10.65;2.10;;;;;;;10.35;69.77;101025.50;5065124;28;20507;-81
2022/06/20 01:20:19;;;;;;;13.75;2.35;;;;;;;10.24;70.08;101038.78;5093809;28;20449;-81
2022/06/20 01:23:06;;;;;;;10.67;2.30;;;;;;;10.24;70.19;101038.78;5073592;28;20051;-81
2022/06/20 01:26:07;;;;;;;10.25;2.08;;;;;;;10.32;69.76;101032.88;5074851;28;20088;-81
2022/06/20 01:28:54;;;;;;;11.35;2.20;;;;;;;10.32;69.97;101030.22;5074979;28;20127;-81
2022/06/20 01:31:45;;;;;;;8.77;2.40;;;;;;;10.22;70.04;101028.34;5058700;28;20506;-81
2022/06/20 01:34:31;;;;;;;15.23;2.58;;;;;;;10.10;70.62;101030.19;5078258;28;20047;-81
2022/06/20 01:37:23;;;;;;;10.07;2.60;;;;;;;10.09;70.68;101036.44;5078847;28;20039;-81
2022/06/20 01:40:10;;;;;;;10.80;2.28;;;;;;;10.15;70.76;101035.09;5089848;28;20503;-81
2022/06/20 01:42:55;;;;;;;16.15;2.15;;;;;;;10.19;70.41;101028.63;5079511;28;20046;-81
2022/06/20 01:45:58;;;;;;;9.90;2.17;;;;;;;10.20;70.37;101019.72;5079640;28;20562;-80
2022/06/20 01:48:54;;;;;;;7.60;2.22;;;;;;;10.07;70.94;101011.09;5091206;28;20110;-80
2022/06/20 01:51:41;;;;;;;8.40;2.67;;;;;;;9.90;71.57;101019.47;5063557;28;20070;-81
2022/06/20 01:54:30;;;;;;;10.98;2.03;;;;;;;9.76;72.08;101022.41;5065612;28;20168;-81
2022/06/20 01:57:17;;;;;;;9.25;2.10;;;;;;;9.58;73.03;101024.72;5074088;28;20040;-81
2022/06/20 02:00:04;;;;;;;11.73;2.63;;;;;;;9.51;73.71;101032.28;5073100;28;20514;-80
2022/06/20 02:02:54;;;;;;;14.65;2.72;;;;;;;9.38;74.11;101027.16;5089970;28;20085;-81
2022/06/20 02:05:42;;;;;;;11.50;2.80;;;;;;;9.34;74.50;101031.84;5082612;28;20411;-81
2022/06/20 02:08:27;;;;;;;10.13;2.70;;;;;;;9.31;74.82;101034.72;5073521;28;20050;-81
2022/06/20 02:11:17;;;;;;;13.23;2.30;;;;;;;9.29;75.44;101031.34;5090421;28;20081;-80
2022/06/20 02:14:35;;;;;;;9.32;2.10;;;;;;;9.24;75.27;101023.81;5074699;28;20089;-81
2022/06/20 02:17:31;;;;;;;10.20;2.33;;;;;;;9.32;74.92;101030.28;5069767;28;20523;-81
2022/06/20 02:20:22;;;;;;;12.50;2.05;;;;;;;9.40;74.48;101027.88;5091615;28;20058;-80
2022/06/20 02:23:07;;;;;;;13.95;2.42;;;;;;;9.45;74.12;101030.97;5068642;28;20051;-81
2022/06/20 02:25:53;;;;;;;10.60;2.08;;;;;;;9.53;74.00;101020.66;5076369;28;20046;-81
2022/06/20 02:28:45;;;;;;;10.18;2.17;;;;;;;9.53;73.80;101017.16;5064016;28;20043;-81
2022/06/20 02:31:30;;;;;;;10.75;2.60;;;;;;;9.50;73.74;101013.00;5074040;28;20051;-81
2022/06/20 02:34:14;;;;;;;13.02;2.47;;;;;;;9.44;74.11;101026.69;5069725;28;20059;-81
2022/06/20 02:37:03;;;;;;;17.40;2.47;;;;;;;9.36;74.43;101010.63;5075689;28;20075;-81
2022/06/20 02:39:50;;;;;;;11.82;2.45;;;;;;;9.32;74.62;101031.13;5078337;28;20116;-81
2022/06/20 02:42:43;;;;;;;8.48;2.40;;;;;;;9.30;74.92;101025.16;5064301;28;20244;-81
2022/06/20 02:45:29;;;;;;;9.13;2.45;;;;;;;9.23;75.42;101022.16;5086269;28;20518;-81
2022/06/20 02:48:15;;;;;;;13.75;2.85;;;;;;;9.12;76.02;101011.59;5077086;28;20581;-80
2022/06/20 02:51:02;;;;;;;;;;;;;;;8.94;77.60;101014.72;5069144;28;20042;-81
2022/06/20 02:53:52;;;;;;;10.27;2.80;;;;;;;8.89;77.18;101011.59;5097413;28;20303;-81
2022/06/20 02:56:41;;;;;;;13.02;2.97;;;;;;;8.82;77.44;101016.50;5072001;28;20039;-81
2022/06/20 02:59:34;;;;;;;12.57;2.40;;;;;;;8.83;77.32;101030.50;5093617;28;20077;-81
2022/06/20 03:02:23;;;;;;;11.45;2.65;;;;;;;8.90;77.22;101029.09;5073529;28;20066;-81
2022/06/20 03:05:08;;;;;;;15.60;3.00;;;;;;;8.95;76.95;101026.09;5087365;28;20097;-81
2022/06/20 03:07:53;;;;;;;11.95;2.35;;;;;;;9.04;76.71;101022.75;5077340;28;20106;-81
2022/06/20 03:10:46;;;;;;;11.18;2.50;;;;;;;9.13;76.13;101026.44;5077821;28;20070;-83
2022/06/20 03:13:34;;;;;;;9.82;2.03;;;;;;;9.14;76.06;101023.69;5076965;28;20055;-83
2022/06/20 03:16:20;;;;;;;14.77;2.50;;;;;;;9.04;76.51;101014.84;5050589;28;20114;-81
2022/06/20 03:19:06;;;;;;;12.32;2.72;;;;;;;8.97;76.66;101025.00;5093279;28;20097;-81
2022/06/20 03:21:52;;;;;;;15.18;3.53;;;;;;;8.93;77.78;101028.84;5077148;28;20503;-81
2022/06/20 03:24:37;;;;;;;17.17;2.40;;;;;;;8.89;78.04;101024.75;5077062;28;20081;-81
2022/06/20 03:27:25;;;;;;;13.40;2.30;;;;;;;8.85;78.18;101037.38;5060976;28;20035;-81
2022/06/20 03:30:27;;;;;;;11.48;2.53;;;;;;;8.85;78.22;101031.25;5074750;28;20453;-81
2022/06/20 03:33:14;;;;;;;11.15;2.88;;;;;;;8.86;78.03;101031.13;5065579;28;20565;-80
2022/06/20 03:36:20;;;;;;;14.27;3.15;;;;;;;8.86;78.10;101044.31;5067277;28;20079;-81
2022/06/20 03:39:05;;;;;;;12.63;3.10;;;;;;;8.82;78.44;101040.25;5062019;28;20087;-80
2022/06/20 03:41:51;;;;;;;13.48;2.85;;;;;;;8.87;78.27;101045.16;5071277;28;20081;-81
2022/06/20 03:44:42;;;;;;;9.60;2.20;;;;;;;8.89;77.94;101051.97;5072130;28;20052;-81
2022/06/20 03:47:33;;;;;;;11.25;2.45;;;;;;;9.03;77.72;101050.91;5071439;28;20047;-80
2022/06/20 03:50:24;;;;;;;11.25;2.10;;;;;;;9.18;76.97;101053.31;5062624;28;20098;-81
2022/06/20 03:53:10;;;;;;;14.02;2.53;;;;;;;9.30;76.46;101056.78;5068364;28;20036;-81
2022/06/20 03:56:06;;;;;;;11.60;2.60;;;;;;;9.40;75.93;101059.53;5063132;28;20078;-81
2022/06/20 03:59:12;;;;;;;10.77;1.85;;;;;;;9.48;75.43;101051.84;5070357;28;20039;-80
2022/06/20 04:02:07;;;;;;;7.73;2.10;;;;;;;9.41;75.57;101053.31;5064946;28;20039;-81
2022/06/20 04:04:57;;;;;;;9.15;2.22;;;;;;;9.12;76.09;101065.19;5061400;28;20055;-80
2022/06/20 04:08:11;;;;;;;11.23;2.15;;;;;;;8.85;76.34;101058.44;5074257;28;20388;-81
2022/06/20 04:11:03;;;;;;;7.95;2.10;;;;;;;8.84;76.78;101067.28;5061570;28;20123;-81
2022/06/20 04:14:07;;;;;;;7.53;1.60;;;;;;;8.87;76.30;101071.50;5077478;28;20035;-81
2022/06/20 04:18:27;;;;;;;10.85;2.22;;;;;;;8.90;76.10;101076.56;5084598;28;20064;-81
2022/06/20 04:20:25;;;;;;;11.07;2.65;;;;;;;8.85;75.90;101076.06;5071098;28;20050;-80
2022/06/20 04:23:23;;;;;;;7.05;2.03;;;;;;;8.84;75.87;101074.38;5070721;28;20809;-81
2022/06/20 04:26:28;;;;;;;10.25;2.20;;;;;;;8.91;75.76;101071.16;5070847;28;20043;-80
2022/06/20 04:29:27;;;;;;;9.45;2.17;;;;;;;8.99;75.07;101070.56;5070576;28;20416;-80
2022/06/20 04:32:30;;;;;;;11.88;2.00;;;;;;;9.05;75.03;101071.88;5083476;28;20044;-80
2022/06/20 04:35:26;;;;;;;11.40;2.30;;;;;;;8.90;75.21;101073.91;5062672;28;20055;-80
2022/06/20 04:38:15;;;;;;;7.50;2.20;;;;;;;8.63;76.01;101083.78;5083315;28;20124;-80
2022/06/20 04:41:25;;;;;;;14.27;2.78;;;;;;;8.61;76.40;101092.78;5076374;28;20185;-80
2022/06/20 04:44:38;;;;;;;14.35;2.85;;;;;;;8.72;76.40;101095.44;5093055;28;20050;-80
2022/06/20 04:47:26;;;;;;;7.60;2.17;;;;;;;8.82;76.20;101095.59;5081690;28;20038;-80
2022/06/20 04:50:30;;;;;;;17.63;2.50;;;;;;;8.84;76.41;101088.38;5067409;28;20069;-80
2022/06/20 04:53:20;;;;;;;8.77;2.63;;;;;;;8.85;76.65;101099.78;5090748;28;20389;-81
2022/06/20 04:56:10;;;;;;;19.65;2.38;;;;;;;8.85;76.92;101100.63;5073259;28;20073;-80
2022/06/20 04:59:00;;;;;;;7.55;2.30;;;;;;;8.86;76.90;101104.09;5069321;28;20043;-81
2022/06/20 05:01:45;;;;;;;13.85;2.90;;;;;;;8.88;77.65;101113.56;5095456;28;20038;-80
2022/06/20 05:04:38;;;;;;;10.95;2.30;;;;;;;8.87;77.60;101108.41;5081140;28;20096;-81
2022/06/20 05:07:33;;;;;;;9.88;2.00;;;;;;;8.88;77.92;101110.09;5068692;28;20046;-83
2022/06/20 05:10:24;;;;;;;18.73;2.67;;;;;;;8.84;78.45;101119.19;5080436;28;20035;-81
2022/06/20 05:13:23;;;;;;;12.40;2.50;;;;;;;8.80;79.03;101115.94;5096198;28;20047;-80
2022/06/20 05:16:17;;;;;;;15.60;2.75;;;;;;;8.93;78.82;101129.03;5080948;28;20047;-81
2022/06/20 05:19:18;;;;;;;17.73;2.65;;;;;;;9.08;78.27;101137.56;5072735;28;20050;-80
2022/06/20 05:22:11;;;;;;;10.07;2.28;;;;;;;9.23;78.37;101122.38;5080104;28;20035;-81
2022/06/20 05:24:59;;;;;;;15.07;2.67;;;;;;;9.28;78.79;101116.75;5065662;28;20039;-81
2022/06/20 05:27:50;;;;;;;14.98;2.78;;;;;;;9.27;79.17;101123.00;5075699;28;20131;-81
2022/06/20 05:30:36;;;;;;;13.10;2.13;;;;;;;9.31;79.42;101121.78;5079772;28;20115;-81
2022/06/20 05:33:30;;;;;;;13.27;2.80;;;;;;;9.36;79.59;101124.06;5073665;28;20055;-81
2022/06/20 05:36:05;;;;;;;16.70;2.88;;;;;;;9.40;79.93;101120.22;5064517;28;20033;-81
2022/06/20 05:38:51;;;;;;;17.05;2.75;;;;;;;9.44;80.28;101126.94;5073396;28;20036;-81
2022/06/20 05:41:17;;;;;;;12.73;2.50;;;;;;;9.51;80.33;101127.28;5081990;28;20040;-80
2022/06/20 05:43:44;;;;;;;14.45;2.60;;;;;;;9.59;80.01;101124.88;5071812;28;20481;-81
2022/06/20 05:46:45;;;;;;;10.32;2.38;;;;;;;9.72;79.99;101129.19;5071915;28;20805;-81
2022/06/20 05:49:38;;;;;;;15.88;2.53;;;;;;;9.79;80.30;101133.03;5064325;28;20048;-81
2022/06/20 05:52:07;;;;;;;12.45;2.40;;;;;;;9.85;80.51;101134.34;5087279;28;20382;-81
2022/06/20 05:54:46;;;;;;;10.70;2.30;;;;;;;9.89;80.61;101141.06;5089362;28;20060;-81
2022/06/20 05:57:16;;;;;;;10.20;2.10;;;;;;;9.95;80.83;101140.59;5072732;28;20059;-81
2022/06/20 05:59:46;;;;;;;12.07;2.45;;;;;;;10.04;80.36;101142.47;5072957;28;20079;-81
2022/06/20 06:02:36;;;;;;;13.52;2.00;;;;;;;10.12;80.49;101151.56;5073145;28;20095;-80
2022/06/20 06:05:23;;;;;;;12.65;2.10;;;;;;;10.14;81.23;101147.03;5060159;28;20108;-80
2022/06/20 06:08:27;;;;;;;12.95;2.08;;;;;;;10.20;81.30;101148.31;5046229;28;20392;-80
2022/06/20 06:11:14;;;;;;;7.65;2.10;;;;;;;10.27;81.43;101154.78;5061680;28;20139;-81
2022/06/20 06:13:44;;;;;;;12.00;2.20;;;;;;;10.34;81.02;101155.09;5071051;28;20024;-80
2022/06/20 06:19:27;;;;;;;13.73;2.28;;;;;;;10.41;80.95;101162.44;5072017;28;20033;-81
2022/06/20 06:21:55;;;;;;;13.35;2.60;;;;;;;10.52;80.74;101166.88;5071323;28;20400;-81
2022/06/20 06:24:24;;;;;;;10.57;1.92;;;;;;;10.61;80.83;101175.84;5056429;28;20028;-81
2022/06/20 06:26:54;;;;;;;11.85;1.90;;;;;;;10.67;80.50;101177.97;5071887;28;20539;-82
2022/06/20 06:29:25;;;;;;;16.10;2.90;;;;;;;10.66;80.38;101176.31;5089350;28;20431;-80
2022/06/20 06:31:57;;;;;;;19.40;2.75;;;;;;;10.71;80.39;101178.56;5072203;28;20108;-81
2022/06/20 06:34:46;;;;;;;20.42;2.97;;;;;;;10.77;80.99;101178.06;5055566;28;20098;-80
2022/06/20 06:37:17;;;;;;;17.30;2.63;;;;;;;10.90;80.70;101177.03;5042745;28;20048;-80
2022/06/20 06:39:52;;;;;;;15.75;2.80;;;;;;;10.94;80.24;101175.78;5072147;28;20047;-82
2022/06/20 06:42:18;;;;;;;15.23;2.45;;;;;;;10.96;80.00;101176.50;5063170;28;20520;-81
2022/06/20 06:44:48;;;;;;;11.43;2.53;;;;;;;11.04;80.19;101166.13;5054961;28;20044;-81
2022/06/20 06:47:25;;;;;;;14.35;2.95;;;;;;;11.13;79.73;101174.28;5071889;28;20032;-81
2022/06/20 06:49:56;;;;;;;15.43;2.30;;;;;;;11.18;79.22;101177.34;5055182;28;20435;-81
2022/06/20 06:52:33;;;;;;;16.02;1.98;;;;;;;11.25;79.03;101177.66;5067833;28;20047;-80
2022/06/20 06:55:05;;;;;;;13.07;3.03;;;;;;;11.27;78.46;101176.59;5052923;28;20048;-81
2022/06/20 06:57:39;;;;;;;16.35;2.85;;;;;;;11.32;78.73;101180.63;5073058;28;20079;-81
2022/06/20 07:00:05;;;;;;;14.50;2.97;;;;;;;11.34;78.02;101182.16;5071161;28;20443;-81
2022/06/20 07:02:42;;;;;;;9.40;1.80;;;;;;;11.32;77.83;101191.22;5055503;28;20044;-81
2022/06/20 07:05:19;;;;;;;9.55;2.10;;;;;;;11.32;77.44;101191.22;5064681;28;20037;-81
2022/06/20 07:07:47;;;;;;;11.55;2.30;;;;;;;11.39;77.98;101192.38;5069834;28;20033;-81
2022/06/20 07:10:23;;;;;;;14.40;2.35;;;;;;;11.51;78.15;101186.03;5073042;28;20042;-81
2022/06/20 07:12:55;;;;;;;;;;;;;;;11.52;77.67;101184.22;5070535;28;20142;-81
2022/06/20 07:15:23;;;;;;;16.05;2.60;;;;;;;11.76;78.23;101172.47;5061825;28;19913;-81
2022/06/20 07:17:54;;;;;;;12.95;2.33;;;;;;;11.98;77.12;101170.56;5058453;28;20037;-81
2022/06/20 07:20:24;;;;;;;12.52;2.60;;;;;;;12.14;76.52;101178.03;5038237;28;20438;-81
2022/06/20 07:22:50;;;;;;;7.35;1.80;;;;;;;12.22;76.44;101178.19;5070841;28;20029;-81
2022/06/20 07:25:27;;;;;;;11.15;1.95;;;;;;;12.30;75.30;101171.34;5071933;28;20028;-81
2022/06/20 07:28:09;;;;;;;10.38;2.17;;;;;;;12.53;75.08;101170.13;5072027;28;20493;-81
2022/06/20 07:30:44;;;;;;;13.27;2.40;;;;;;;12.78;74.50;101172.34;5087064;28;20107;-83
2022/06/20 07:33:56;;;;;;;10.50;2.20;;;;;;;12.94;72.38;101169.13;5081832;28;20060;-84
2022/06/20 07:36:28;;;;;;;9.27;2.00;;;;;;;13.08;72.77;101169.66;5075471;28;20485;-81
2022/06/20 07:39:14;;;;;;;16.25;2.47;;;;;;;13.14;72.59;101161.09;5061779;28;20040;-81
2022/06/20 07:41:45;;;;;;;12.65;2.38;;;;;;;13.28;72.37;101158.00;5058745;28;20036;-81
2022/06/20 07:44:19;;;;;;;14.27;2.20;;;;;;;13.54;71.84;101155.72;5074187;28;20024;-81
2022/06/20 07:46:55;;;;;;;11.98;2.50;;;;;;;13.81;70.90;101154.06;5075066;28;20035;-81
2022/06/20 07:49:31;;;;;;;13.15;2.28;;;;;;;13.97;70.74;101154.22;5064414;28;20036;-81
2022/06/20 07:52:02;;;;;;;8.38;2.05;;;;;;;13.88;70.16;101144.50;5064207;28;20040;-82
2022/06/20 07:54:33;;;;;;;17.50;2.72;;;;;;;13.94;69.77;101148.38;5055908;28;20028;-81
2022/06/20 07:57:05;;;;;;;12.63;2.55;;;;;;;13.69;69.16;101148.94;5057179;28;20115;-82
2022/06/20 07:59:40;;;;;;;13.68;2.28;;;;;;;13.57;69.44;101145.63;5074778;28;20195;-81
2022/06/20 08:02:27;;;;;;;15.85;2.53;;;;;;;13.61;69.27;101151.50;5087191;28;20053;-81
2022/06/20 08:04:57;;;;;;;11.00;2.35;;;;;;;13.71;69.42;101146.94;5090162;28;20028;-82
2022/06/20 08:07:24;;;;;;;13.95;2.72;;;;;;;13.64;69.38;101153.84;5093109;28;20032;-82
2022/06/20 08:10:09;;;;;;;12.52;2.80;;;;;;;13.78;69.27;101147.19;5057996;28;20044;-82
2022/06/20 08:12:51;;;;;;;11.87;2.13;;;;;;;13.92;69.06;101143.22;5074047;28;20058;-82
2022/06/20 08:15:22;;;;;;;12.15;2.45;;;;;;;14.10;69.05;101139.75;5092184;28;20032;-81
2022/06/20 08:17:48;;;;;;;12.13;2.17;;;;;;;14.20;68.77;101142.34;5069071;28;20471;-82
2022/06/20 08:20:16;;;;;;;15.32;2.47;;;;;;;14.22;68.39;101137.72;5073008;28;20110;-81
2022/06/20 08:22:49;;;;;;;15.57;3.03;;;;;;;14.22;68.08;101145.69;5044736;28;21207;-81
2022/06/20 08:25:27;;;;;;;14.65;2.70;;;;;;;14.36;67.99;101139.00;5077552;28;20858;-82
2022/06/20 08:28:00;;;;;;;16.92;2.95;;;;;;;14.32;67.78;101142.94;5070100;28;20116;-82
2022/06/20 08:30:43;;;;;;;17.42;2.92;;;;;;;14.25;67.13;101145.38;5066996;28;20040;-81
2022/06/20 08:33:21;;;;;;;11.68;2.15;;;;;;;14.10;67.47;101135.28;5055761;28;20496;-81
2022/06/20 08:36:00;;;;;;;14.48;2.45;;;;;;;14.15;67.52;101142.78;5067095;28;20090;-81
2022/06/20 08:38:51;;;;;;;14.60;2.75;;;;;;;13.98;67.50;101145.25;5039987;28;20373;-81
2022/06/20 08:41:47;;;;;;;13.30;2.58;;;;;;;14.03;67.58;101144.81;5078120;28;20085;-82
2022/06/20 08:44:41;;;;;;;9.15;2.20;;;;;;;14.14;67.73;101152.56;5050976;28;20106;-82
2022/06/20 08:47:31;;;;;;;10.82;2.47;;;;;;;14.29;67.60;101149.41;5038177;28;20825;-82
2022/06/20 08:50:55;;;;;;;13.10;3.08;;;;;;;14.37;67.55;101144.16;5062942;28;20047;-82
2022/06/20 08:53:23;;;;;;;15.32;3.15;;;;;;;14.44;67.54;101144.41;5013765;28;20041;-83
2022/06/20 08:56:21;;;;;;;12.45;2.83;;;;;;;14.41;67.56;101154.50;5023702;28;20120;-82
2022/06/20 08:59:18;;;;;;;13.23;2.88;;;;;;;14.48;67.30;101150.22;5068834;28;20048;-82
2022/06/20 09:01:59;;;;;;;11.30;2.40;;;;;;;14.55;67.30;101140.66;5030770;28;20510;-82
2022/06/20 09:04:50;;;;;;;12.85;2.60;;;;;;;14.58;67.15;101142.16;5077408;28;20040;-82
2022/06/20 09:07:25;;;;;;;12.80;2.33;;;;;;;14.59;67.13;101138.50;5068197;28;20373;-82
2022/06/20 09:10:06;;;;;;;13.63;2.90;;;;;;;14.69;67.11;101143.75;5083056;28;20036;-85
2022/06/20 09:12:57;;;;;;;9.40;2.17;;;;;;;14.81;66.48;101160.34;5067266;28;20431;-84
2022/06/20 09:15:42;;;;;;;15.30;2.42;;;;;;;14.92;66.20;101152.13;5071887;28;20028;-83
2022/06/20 09:18:26;;;;;;;13.27;2.50;;;;;;;15.00;65.88;101154.00;5071660;28;20043;-82
2022/06/20 09:21:02;;;;;;;13.60;3.00;;;;;;;15.13;66.05;101156.22;5054145;28;20079;-82
2022/06/20 09:23:49;;;;;;;17.02;2.53;;;;;;;15.25;65.95;101148.81;5088810;28;20056;-82
2022/06/20 09:26:40;;;;;;;14.13;2.80;;;;;;;15.36;66.05;101153.03;5051247;28;20058;-84
2022/06/20 09:29:40;;;;;;;8.07;2.20;;;;;;;15.46;65.39;101145.78;5060222;28;20036;-85
2022/06/20 09:32:21;;;;;;;11.27;2.47;;;;;;;15.55;65.02;101141.31;5082719;28;20032;-83
2022/06/20 09:35:20;;;;;;;10.02;1.92;;;;;;;15.65;64.14;101130.53;5014333;28;20052;-82
2022/06/20 09:38:04;;;;;;;12.55;2.33;;;;;;;15.52;63.45;101133.63;5056737;28;20041;-82
2022/06/20 09:40:42;;;;;;;10.35;2.15;;;;;;;15.54;63.96;101136.13;5064600;28;20035;-82
2022/06/20 09:43:08;;;;;;;10.98;2.13;;;;;;;15.65;63.90;101130.53;5042087;28;20825;-83
2022/06/20 09:45:59;;;;;;;9.82;2.03;;;;;;;15.77;63.37;101117.72;5051721;28;20139;-82
2022/06/20 09:48:45;;;;;;;11.13;2.33;;;;;;;15.88;63.26;101117.44;5035071;28;20065;-82
2022/06/20 09:51:49;;;;;;;12.25;2.80;;;;;;;15.98;63.02;101114.66;5046248;28;20052;-82
2022/06/20 09:54:49;;;;;;;10.70;2.47;;;;;;;16.06;62.81;101118.31;5041797;28;20033;-83
2022/06/20 09:57:18;;;;;;;14.27;2.35;;;;;;;16.30;62.33;101120.19;5031577;28;20095;-83
2022/06/20 09:59:54;;;;;;;12.00;2.35;;;;;;;16.46;61.67;101119.38;5033662;28;20393;-83
2022/06/20 10:02:42;;;;;;;15.50;2.97;;;;;;;16.63;61.20;101107.88;5013724;28;20452;-83
2022/06/20 10:05:16;;;;;;;8.52;1.77;;;;;;;16.73;60.47;101111.16;5049106;28;20082;-84
2022/06/20 10:07:47;;;;;;;12.20;2.30;;;;;;;16.88;60.07;101105.16;5052591;28;20029;-83
2022/06/20 10:10:30;;;;;;;14.00;2.20;;;;;;;16.92;59.11;101101.13;5052931;28;20024;-84
2022/06/20 10:13:13;;;;;;;12.60;1.90;;;;;;;16.83;59.22;101105.66;5046275;28;20033;-84
2022/06/20 10:15:42;;;;;;;13.82;2.10;;;;;;;16.92;59.49;101101.13;5039351;28;20102;-83
2022/06/20 10:18:14;;;;;;;12.15;2.05;;;;;;;17.09;58.95;101093.94;5061650;28;20060;-83
2022/06/20 10:20:56;;;;;;;14.38;2.60;;;;;;;17.17;58.49;101093.91;5050560;28;20032;-83
2022/06/20 10:23:48;;;;;;;9.10;1.95;;;;;;;17.26;58.81;101102.75;5050896;28;20043;-83
2022/06/20 10:26:28;;;;;;;13.48;2.42;;;;;;;17.43;58.48;101095.47;5027166;28;20041;-83
2022/06/20 10:28:59;;;;;;;10.23;2.20;;;;;;;17.49;58.44;101085.94;5050848;28;20017;-83
2022/06/20 10:31:41;;;;;;;8.60;2.10;;;;;;;17.61;58.45;101083.72;5035433;28;20440;-84
2022/06/20 10:34:14;;;;;;;11.30;2.35;;;;;;;17.75;57.82;101086.63;4977476;28;20060;-84
2022/06/20 10:36:49;;;;;;;10.38;2.00;;;;;;;17.76;57.23;101088.31;5032044;28;20040;-83
2022/06/20 10:39:18;;;;;;;9.43;2.55;;;;;;;17.81;57.11;101091.28;5068550;28;20061;-83
2022/06/20 10:41:46;;;;;;;10.25;1.40;;;;;;;17.91;56.70;101091.03;5033045;28;20036;-83
2022/06/20 10:45:16;;;;;;;14.35;2.00;;;;;;;17.98;55.53;101087.47;5085819;28;20047;-83
2022/06/20 10:48:05;;;;;;;7.35;1.65;;;;;;;18.03;56.05;101086.13;4964706;28;20447;-83
2022/06/20 10:50:43;;;;;;;4.93;1.27;;;;;;;18.05;55.52;101081.41;4974701;28;20521;-83
2022/06/20 10:53:18;;;;;;;8.20;1.77;;;;;;;18.14;55.41;101083.03;5044221;28;20051;-83
2022/06/20 10:56:02;;;;;;;7.72;1.65;;;;;;;18.22;54.70;101084.81;5046346;28;20439;-83
2022/06/20 10:58:40;;;;;;;12.77;1.55;;;;;;;18.21;54.66;101075.13;5069316;28;20036;-83
2022/06/20 11:01:33;;;;;;;7.97;1.70;;;;;;;18.18;54.78;101083.53;5032925;28;20505;-84
2022/06/20 11:04:05;;;;;;;10.30;2.03;;;;;;;18.25;55.18;101075.63;5058453;28;20033;-82
2022/06/20 11:06:40;;;;;;;12.02;1.70;;;;;;;18.36;54.32;101077.88;5010881;28;20397;-86
2022/06/20 11:09:33;;;;;;;9.07;1.30;;;;;;;18.45;54.51;101068.75;5042385;28;20036;-87
2022/06/20 11:12:13;;;;;;;8.32;1.77;;;;;;;18.58;54.64;101067.31;5058878;28;20481;-84
2022/06/20 11:14:57;;;;;;;7.32;1.85;;;;;;;18.71;54.30;101069.34;5037956;28;20032;-83
2022/06/20 11:17:41;;;;;;;10.00;1.60;;;;;;;18.79;54.31;101063.88;5052646;28;20028;-83
2022/06/20 11:20:12;;;;;;;7.78;1.50;;;;;;;18.92;54.63;101063.25;5045390;28;20049;-83
2022/06/20 11:22:47;;;;;;;9.30;1.90;;;;;;;18.99;54.73;101067.88;5024473;28;20044;-83
2022/06/20 11:25:25;;;;;;;9.65;2.17;;;;;;;19.08;54.66;101058.72;5006708;28;20040;-86
2022/06/20 11:28:17;;;;;;;5.90;1.50;;;;;;;19.15;54.00;101061.50;5024649;28;20059;-85
2022/06/20 11:30:58;;;;;;;15.00;1.40;;;;;;;19.25;53.92;101055.88;5041150;28;20029;-86
2022/06/20 11:36:16;;;;;;;9.95;2.00;;;;;;;19.42;53.84;101054.66;5022982;28;20942;-86
2022/06/20 11:39:04;;;;;;;6.97;1.20;;;;;;;19.49;52.97;101052.03;5010936;28;20048;-86
2022/06/20 11:41:36;;;;;;;7.55;1.90;;;;;;;19.59;52.98;101049.03;5040035;28;20170;-84
2022/06/20 11:44:08;;;;;;;8.18;1.90;;;;;;;19.55;52.59;101045.09;5044922;28;20033;-85
2022/06/20 11:46:47;;;;;;;7.28;1.85;;;;;;;19.55;52.66;101040.56;5007252;28;20114;-84
2022/06/20 11:49:38;;;;;;;4.63;1.35;;;;;;;19.62;52.16;101040.63;5017413;28;20041;-83
2022/06/20 11:52:46;;;;;;;7.10;1.35;;;;;;;19.71;51.85;101038.66;5027020;28;20450;-83
2022/06/20 11:55:23;;;;;;;8.90;2.20;;;;;;;19.78;51.87;101031.50;5043417;28;20121;-85
2022/06/20 11:57:58;;;;;;;9.27;1.83;;;;;;;19.84;51.48;101032.59;4972434;28;20036;-85
2022/06/20 12:01:15;;;;;;;7.23;1.53;;;;;;;19.88;51.32;101027.66;5031595;28;20060;-85
2022/06/20 12:04:13;;;;;;;8.98;1.55;;;;;;;19.98;50.96;101019.28;5025871;28;20079;-85
2022/06/20 12:07:24;;;;;;;5.15;1.60;;;;;;;20.13;51.43;101017.38;5026764;28;20036;-85
2022/06/20 12:10:01;;;;;;;6.07;1.38;;;;;;;20.27;51.38;101007.59;5028774;28;20045;-82
2022/06/20 12:12:47;;;;;;;7.78;1.58;;;;;;;20.32;50.62;101001.66;5015369;28;20062;-83
2022/06/20 12:15:33;;;;;;;9.93;1.90;;;;;;;20.38;50.01;101000.03;5022145;28;20028;-83
2022/06/20 12:18:31;;;;;;;7.10;1.58;;;;;;;20.50;50.30;100994.91;4998975;28;20485;-83
2022/06/20 12:23:53;;;;;;;5.30;1.35;;;;;;;20.82;50.03;100988.09;5030305;28;20072;-84
2022/06/20 12:26:29;;;;;;;8.32;1.77;;;;;;;20.93;49.65;100985.88;5029469;28;20036;-83
2022/06/20 12:28:57;;;;;;;7.18;1.70;;;;;;;21.02;49.25;100983.84;5012227;28;20527;-83
2022/06/20 12:31:29;;;;;;;6.43;1.90;;;;;;;21.00;48.57;100980.53;5027687;28;20040;-82
2022/06/20 12:34:06;;;;;;;6.28;1.70;;;;;;;20.80;49.19;100978.56;5032163;28;20869;-83
2022/06/20 12:36:42;;;;;;;5.57;1.52;;;;;;;20.74;50.07;100976.66;5066346;28;20024;-85
2022/06/20 12:39:16;;;;;;;9.20;1.50;;;;;;;20.85;50.19;100973.41;5064789;28;20033;-85
2022/06/20 12:41:55;;;;;;;7.93;1.52;;;;;;;20.66;49.28;100981.19;5046207;28;20485;-83
2022/06/20 12:44:30;;;;;;;9.98;2.05;;;;;;;20.58;50.26;100970.59;5079585;28;20038;-83
2022/06/20 12:47:38;;;;;;;6.28;1.63;;;;;;;20.58;50.80;100976.81;5080112;28;20127;-83